Time;durP1;ratioP1;P1;durP2;ratioP2;P2;SDS_P1;SDS_P2;PMS_P1;PMS_P2;Temp;Humidity;BMP_temperature;BMP_pressure;BME280_temperature;BME280_humidity;BME280_pressure;Samples;Min_cycle;Max_cycle;Signal;HPM_P1;HPM_P2
2022/09/13 00:02:07;;;;;;;20.20;14.88;;;;;;;17.03;96.44;100903.41;5010490;28;21117;-64
2022/09/13 00:04:32;;;;;;;21.83;16.30;;;;;;;17.03;95.75;100908.94;5013964;28;20673;-66
2022/09/13 00:06:57;;;;;;;18.77;14.63;;;;;;;17.06;96.48;100908.38;5014611;28;20030;-64
2022/09/13 00:09:23;;;;;;;19.53;15.53;;;;;;;17.06;95.66;100913.94;5024888;28;20296;-64
2022/09/13 00:11:48;;;;;;;22.05;16.38;;;;;;;17.10;95.99;100914.22;5030399;28;20340;-67
2022/09/13 00:14:13;;;;;;;19.63;13.90;;;;;;;17.08;96.00;100911.72;5015601;28;20059;-65
2022/09/13 00:16:39;;;;;;;18.45;13.43;;;;;;;17.04;96.73;100910.59;5027491;28;20423;-64
2022/09/13 00:19:04;;;;;;;20.10;13.70;;;;;;;17.00;97.28;100908.66;5010806;28;20034;-64
2022/09/13 00:21:29;;;;;;;19.23;14.45;;;;;;;16.97;97.27;100915.56;5025190;28;20048;-65
2022/09/13 00:23:55;;;;;;;20.85;15.77;;;;;;;17.00;95.78;100903.09;5015905;28;20030;-65
2022/09/13 00:26:26;;;;;;;21.58;15.93;;;;;;;17.00;95.84;100909.47;5022007;28;20108;-64
2022/09/13 00:28:54;;;;;;;22.17;15.80;;;;;;;17.03;96.95;100892.28;5024941;28;20034;-65
2022/09/13 00:31:22;;;;;;;20.80;16.35;;;;;;;17.11;93.48;100890.91;5010069;28;20052;-65
2022/09/13 00:33:47;;;;;;;26.17;15.73;;;;;;;17.12;95.02;100890.63;5022793;28;20037;-65
2022/09/13 00:36:14;;;;;;;20.05;16.08;;;;;;;17.11;94.86;100882.59;5026408;28;20090;-65
2022/09/13 00:38:39;;;;;;;22.00;16.13;;;;;;;17.12;94.25;100875.94;5027517;28;20025;-64
2022/09/13 00:41:07;;;;;;;22.60;16.67;;;;;;;17.12;93.92;100875.94;5029902;28;20586;-64
2022/09/13 00:43:51;;;;;;;20.05;15.40;;;;;;;17.16;94.44;100874.28;5014578;28;20045;-64
2022/09/13 00:46:25;;;;;;;21.75;16.13;;;;;;;17.17;95.07;100875.09;5026712;28;20484;-65
2022/09/13 00:48:57;;;;;;;23.00;16.25;;;;;;;17.13;94.59;100872.03;5010076;28;20061;-64
2022/09/13 00:51:24;;;;;;;21.80;16.35;;;;;;;17.13;94.29;100874.81;5010477;28;20057;-64
2022/09/13 00:53:53;;;;;;;21.50;16.35;;;;;;;17.11;94.05;100877.03;5010510;28;20057;-65
2022/09/13 00:56:27;;;;;;;20.77;16.50;;;;;;;17.12;93.59;100867.59;5011408;28;20030;-67
2022/09/13 00:58:59;;;;;;;27.95;16.23;;;;;;;17.10;92.73;100867.88;5025913;28;20061;-65
2022/09/13 01:01:31;;;;;;;23.38;16.52;;;;;;;17.12;93.65;100862.88;5009524;28;20068;-64
2022/09/13 01:03:57;;;;;;;23.45;16.42;;;;;;;17.14;92.76;100859.03;5071930;22;20064;-61
2022/09/13 01:06:28;;;;;;;21.38;16.35;;;;;;;17.14;93.33;100870.94;5066751;28;20112;-62
2022/09/13 01:08:55;;;;;;;27.45;16.02;;;;;;;17.12;93.47;100862.88;5056714;28;20057;-62
2022/09/13 01:11:33;;;;;;;20.95;16.70;;;;;;;17.15;93.37;100869.00;5049078;28;20029;-62
2022/09/13 01:13:58;;;;;;;22.20;16.13;;;;;;;17.14;92.18;100864.56;5054516;28;20035;-62
2022/09/13 01:16:25;;;;;;;23.42;16.65;;;;;;;17.11;92.73;100863.16;5068769;28;20105;-62
2022/09/13 01:18:50;;;;;;;19.75;15.02;;;;;;;17.10;93.58;100873.44;5068454;28;20036;-61
2022/09/13 01:21:45;;;;;;;19.27;15.75;;;;;;;17.13;93.17;100863.72;5064110;28;20040;-62
2022/09/13 01:24:32;;;;;;;20.63;16.27;;;;;;;17.12;94.64;100870.38;5058082;28;20033;-62
2022/09/13 01:27:38;;;;;;;19.83;14.60;;;;;;;17.17;93.64;100869.56;5064352;28;20028;-63
2022/09/13 01:30:05;;;;;;;21.55;16.08;;;;;;;17.10;92.37;100865.09;5068775;28;20025;-61
2022/09/13 01:33:19;;;;;;;23.58;15.63;;;;;;;17.16;92.57;100863.16;5069165;28;20036;-61
2022/09/13 01:35:56;;;;;;;22.15;15.48;;;;;;;17.11;93.17;100865.94;5068703;28;20481;-62
2022/09/13 01:38:38;;;;;;;22.50;17.08;;;;;;;17.08;93.23;100869.25;5069315;28;20033;-62
2022/09/13 01:41:33;;;;;;;23.52;16.95;;;;;;;17.05;93.89;100862.31;5060019;28;20099;-62
2022/09/13 01:44:10;;;;;;;22.02;17.17;;;;;;;17.00;94.26;100873.41;5051986;28;20047;-62
2022/09/13 01:46:53;;;;;;;22.20;16.50;;;;;;;17.00;95.10;100864.25;5068252;28;20115;-62
2022/09/13 01:49:30;;;;;;;24.63;17.45;;;;;;;16.94;95.13;100863.41;5068886;28;20039;-63
2022/09/13 01:52:21;;;;;;;24.38;17.30;;;;;;;16.94;93.34;100863.41;5068576;28;20021;-62
2022/09/13 01:54:49;;;;;;;23.05;17.42;;;;;;;16.91;93.42;100857.56;5051637;28;20387;-62
2022/09/13 01:57:28;;;;;;;22.40;16.25;;;;;;;16.89;94.30;100857.84;5049033;28;20029;-62
2022/09/13 01:59:59;;;;;;;24.77;16.45;;;;;;;16.86;92.78;100859.19;5048101;28;20036;-62
2022/09/13 02:02:38;;;;;;;23.17;16.75;;;;;;;16.88;93.55;100853.41;5048446;28;20033;-62
2022/09/13 02:05:17;;;;;;;19.95;16.30;;;;;;;16.90;92.85;100853.94;5067836;28;20651;-65
2022/09/13 02:07:50;;;;;;;22.88;16.80;;;;;;;16.87;93.44;100854.47;5067675;28;20024;-64
2022/09/13 02:10:35;;;;;;;19.75;15.38;;;;;;;16.92;94.17;100851.72;5068873;28;20016;-64
2022/09/13 02:13:05;;;;;;;23.25;16.55;;;;;;;16.82;92.94;100835.88;5067798;28;20039;-64
2022/09/13 02:15:38;;;;;;;24.58;16.85;;;;;;;16.82;94.50;100846.16;5057503;28;20399;-64
2022/09/13 02:18:28;;;;;;;21.95;16.52;;;;;;;16.87;94.59;100848.94;5068315;28;20139;-63
2022/09/13 02:20:59;;;;;;;21.60;16.55;;;;;;;16.84;96.30;100855.03;5066762;28;20056;-64
2022/09/13 02:23:32;;;;;;;22.02;16.55;;;;;;;16.78;96.03;100856.13;5067729;28;20039;-65
2022/09/13 02:26:00;;;;;;;24.15;17.33;;;;;;;16.78;96.59;100865.28;5067632;28;20103;-64
2022/09/13 02:28:28;;;;;;;;;;;;;;;16.92;94.26;100854.50;5068974;28;20025;-64
2022/09/13 02:30:56;;;;;;;;;;;;;;;16.96;93.28;100863.94;5065694;28;19916;-65
2022/09/13 02:33:32;;;;;;;25.75;17.45;;;;;;;16.89;95.63;100852.28;5049295;28;20511;-64
2022/09/13 02:36:07;;;;;;;23.88;17.63;;;;;;;16.88;96.14;100847.84;5046642;28;20029;-64
2022/09/13 02:38:54;;;;;;;24.67;17.77;;;;;;;16.83;94.60;100854.22;5048084;28;20460;-64
2022/09/13 02:41:37;;;;;;;23.75;17.75;;;;;;;16.88;95.20;100845.06;5064405;28;20089;-64
2022/09/13 02:44:21;;;;;;;23.65;17.63;;;;;;;16.89;95.26;100845.91;5067937;28;20033;-64
2022/09/13 02:47:20;;;;;;;23.48;17.25;;;;;;;16.92;95.76;100859.22;5048997;28;20029;-64
2022/09/13 02:50:06;;;;;;;26.58;17.08;;;;;;;16.92;95.89;100859.22;5052145;28;20501;-64
2022/09/13 02:52:47;;;;;;;24.13;17.98;;;;;;;16.93;96.65;100872.84;5069121;28;20029;-64
2022/09/13 02:55:24;;;;;;;25.40;17.98;;;;;;;16.94;93.96;100866.19;5070330;28;20035;-64
2022/09/13 02:58:01;;;;;;;24.40;17.40;;;;;;;16.97;93.87;100871.16;5071630;28;20024;-65
2022/09/13 03:00:27;;;;;;;24.45;17.67;;;;;;;16.98;95.11;100877.53;5070346;28;20029;-65
2022/09/13 03:02:55;;;;;;;26.63;17.50;;;;;;;17.00;93.62;100876.19;5072028;28;20040;-64
2022/09/13 03:05:21;;;;;;;;;;;;;;;17.10;93.27;100881.75;5071502;28;20533;-64
2022/09/13 03:07:47;;;;;;;23.47;17.93;;;;;;;17.02;94.76;100884.22;5072126;28;20003;-64
2022/09/13 03:10:14;;;;;;;28.60;18.50;;;;;;;17.03;92.10;100877.56;5070865;28;20039;-64
2022/09/13 03:12:47;;;;;;;25.50;18.35;;;;;;;17.04;94.72;100877.31;5071394;28;20344;-64
2022/09/13 03:15:26;;;;;;;22.73;17.90;;;;;;;17.00;95.98;100878.13;5070595;28;20051;-65
2022/09/13 03:18:17;;;;;;;26.65;18.33;;;;;;;16.96;95.72;100868.66;5071625;28;20085;-64
2022/09/13 03:21:00;;;;;;;23.00;18.13;;;;;;;16.98;94.78;100866.44;5071035;28;20036;-64
2022/09/13 03:23:44;;;;;;;29.88;18.65;;;;;;;16.95;96.19;100865.06;5070502;28;20493;-65
2022/09/13 03:26:28;;;;;;;26.50;19.00;;;;;;;16.95;96.20;100865.06;5071051;28;20035;-64
2022/09/13 03:29:17;;;;;;;25.67;18.95;;;;;;;16.92;96.03;100873.09;5071082;28;20029;-64
2022/09/13 03:32:19;;;;;;;26.17;18.80;;;;;;;16.94;97.15;100877.28;5067870;28;20375;-64
2022/09/13 03:34:47;;;;;;;28.58;19.83;;;;;;;16.90;99.09;100864.22;5070045;28;20431;-64
2022/09/13 03:37:23;;;;;;;23.30;19.48;;;;;;;16.85;98.76;100859.47;5071005;28;20094;-65
2022/09/13 03:39:57;;;;;;;28.17;20.48;;;;;;;16.84;99.01;100860.59;5069859;28;20320;-66
2022/09/13 03:42:33;;;;;;;26.00;18.95;;;;;;;16.82;99.19;100855.28;5070528;28;20030;-64
2022/09/13 03:45:02;;;;;;;27.02;19.88;;;;;;;16.81;95.32;100853.63;5070188;28;20036;-64
2022/09/13 03:47:32;;;;;;;26.88;19.38;;;;;;;16.81;97.73;100850.88;5071144;28;20428;-64
2022/09/13 03:49:59;;;;;;;27.90;19.67;;;;;;;16.84;98.03;100858.66;5070257;28;20324;-65
2022/09/13 03:52:25;;;;;;;27.48;19.27;;;;;;;16.85;96.13;100851.16;5071183;28;20112;-65
2022/09/13 03:54:52;;;;;;;27.08;19.60;;;;;;;16.84;95.90;100849.50;5070636;28;20020;-64
2022/09/13 03:57:20;;;;;;;27.27;20.17;;;;;;;16.88;95.64;100849.75;5070306;28;20032;-64
2022/09/13 03:59:48;;;;;;;29.05;19.17;;;;;;;16.89;94.59;100851.47;5069868;28;20115;-64
2022/09/13 04:02:15;;;;;;;24.88;19.38;;;;;;;16.86;95.81;100852.81;5070952;28;20041;-64
2022/09/13 04:04:42;;;;;;;28.43;19.20;;;;;;;16.81;96.87;100853.63;5070764;28;20155;-64
2022/09/13 04:07:09;;;;;;;27.83;19.67;;;;;;;16.79;96.28;100863.34;5070410;28;20024;-65
2022/09/13 04:09:35;;;;;;;27.92;19.42;;;;;;;16.82;97.06;100873.88;5069485;28;20032;-64
2022/09/13 04:12:01;;;;;;;27.05;19.85;;;;;;;16.75;97.34;100870.53;5069835;28;20023;-64
2022/09/13 04:14:27;;;;;;;26.88;19.50;;;;;;;16.72;98.01;100871.06;5069220;28;20082;-64
2022/09/13 04:16:54;;;;;;;29.33;19.92;;;;;;;16.68;98.28;100875.47;5070460;28;20048;-65
2022/09/13 04:19:20;;;;;;;26.67;18.80;;;;;;;16.64;97.83;100886.28;5069946;28;20044;-65
2022/09/13 04:21:52;;;;;;;28.50;19.95;;;;;;;16.61;97.83;100889.56;5056383;28;20379;-64
2022/09/13 04:24:18;;;;;;;27.08;19.20;;;;;;;16.54;98.61;100892.59;5070417;28;20029;-64
2022/09/13 04:26:47;;;;;;;27.90;20.33;;;;;;;16.50;98.68;100897.00;5070273;28;20024;-63
2022/09/13 04:29:13;;;;;;;26.38;19.73;;;;;;;16.44;99.08;100891.72;5069286;28;20032;-64
2022/09/13 04:31:38;;;;;;;27.50;20.38;;;;;;;16.38;98.96;100881.72;5067614;28;20064;-63
2022/09/13 04:34:04;;;;;;;28.05;19.83;;;;;;;16.35;99.79;100883.06;5069761;28;20027;-64
2022/09/13 04:36:30;;;;;;;29.30;20.45;;;;;;;16.32;99.34;100889.13;5070003;28;20028;-63
2022/09/13 04:38:56;;;;;;;25.98;20.17;;;;;;;16.32;99.48;100886.34;5069466;28;20352;-64
2022/09/13 04:41:21;;;;;;;29.17;20.30;;;;;;;16.32;99.87;100878.91;5068333;28;20043;-64
2022/09/13 04:43:49;;;;;;;26.65;19.60;;;;;;;16.36;100.00;100887.50;5069993;28;20040;-63
2022/09/13 04:46:15;;;;;;;28.48;19.83;;;;;;;16.44;100.00;100897.25;5066527;28;20028;-65
2022/09/13 04:48:41;;;;;;;27.65;20.65;;;;;;;16.45;100.00;100902.53;5056761;28;20074;-64
2022/09/13 04:51:06;;;;;;;28.80;20.30;;;;;;;16.48;100.00;100902.00;5064634;28;20122;-63
2022/09/13 04:53:32;;;;;;;28.17;19.70;;;;;;;16.49;100.00;100898.13;5070131;28;20151;-63
2022/09/13 04:56:04;;;;;;;27.40;19.98;;;;;;;16.49;99.47;100903.66;5068778;28;20534;-63
2022/09/13 04:58:30;;;;;;;27.17;19.60;;;;;;;16.49;100.00;100898.13;5068535;28;20024;-64
2022/09/13 05:01:03;;;;;;;27.58;19.55;;;;;;;16.51;100.00;100904.22;5066329;28;20040;-63
2022/09/13 05:03:30;;;;;;;27.77;19.42;;;;;;;16.49;100.00;100903.66;5069191;28;20155;-63
2022/09/13 05:06:00;;;;;;;27.85;19.88;;;;;;;16.47;100.00;100900.31;5067779;28;20035;-64
2022/09/13 05:08:26;;;;;;;30.20;20.50;;;;;;;16.51;99.86;100897.84;5069274;28;20097;-64
2022/09/13 05:10:51;;;;;;;27.38;19.35;;;;;;;16.55;99.63;100904.53;5067598;28;20024;-63
2022/09/13 05:13:16;;;;;;;28.15;20.23;;;;;;;16.57;99.32;100900.41;5067182;28;20121;-64
2022/09/13 05:15:42;;;;;;;28.83;19.77;;;;;;;16.63;99.09;100905.97;5065136;28;20020;-64
2022/09/13 05:18:07;;;;;;;32.85;20.77;;;;;;;16.60;96.93;100899.84;5057442;28;20042;-63
2022/09/13 05:20:33;;;;;;;28.88;20.10;;;;;;;16.63;96.64;100905.97;5068478;28;20051;-63
2022/09/13 05:22:58;;;;;;;26.67;19.63;;;;;;;16.63;97.92;100909.56;5053970;28;20107;-64
2022/09/13 05:25:24;;;;;;;25.33;19.43;;;;;;;16.60;98.88;100905.38;5055562;28;20075;-64
2022/09/13 05:27:49;;;;;;;26.92;20.20;;;;;;;16.59;98.06;100914.81;5067780;28;20289;-64
2022/09/13 05:30:15;;;;;;;26.73;20.13;;;;;;;16.56;98.31;100911.72;5068445;28;20462;-64
2022/09/13 05:32:40;;;;;;;27.60;19.02;;;;;;;16.52;99.51;100913.38;5061494;28;20029;-65
2022/09/13 05:35:06;;;;;;;34.33;20.33;;;;;;;16.49;99.45;100908.38;5071023;28;20025;-65
2022/09/13 05:37:31;;;;;;;27.90;19.75;;;;;;;16.49;99.97;100911.97;5055578;28;20135;-64
2022/09/13 05:39:56;;;;;;;28.38;20.50;;;;;;;16.50;99.39;100910.03;5063572;28;20032;-64
2022/09/13 05:42:22;;;;;;;28.52;19.90;;;;;;;16.53;100.00;100913.13;5060572;28;20465;-64
2022/09/13 05:44:47;;;;;;;28.23;19.70;;;;;;;16.55;100.00;100910.91;5051813;28;20045;-65
2022/09/13 05:47:13;;;;;;;29.00;19.40;;;;;;;16.59;100.00;100917.59;5054366;28;20068;-65
2022/09/13 05:49:38;;;;;;;31.88;21.00;;;;;;;16.55;99.59;100912.84;5049152;28;20036;-64
2022/09/13 05:52:03;;;;;;;30.77;21.20;;;;;;;16.54;99.69;100909.25;5050767;28;20637;-64
2022/09/13 05:54:28;;;;;;;28.70;20.45;;;;;;;16.61;100.00;100911.75;5061896;28;20376;-64
2022/09/13 05:56:56;;;;;;;26.40;20.33;;;;;;;16.62;100.00;100907.88;5061490;28;20029;-64
2022/09/13 05:59:21;;;;;;;31.15;21.10;;;;;;;16.69;100.00;100908.47;5049360;28;20116;-65
2022/09/13 06:01:47;;;;;;;28.98;20.05;;;;;;;16.70;100.00;100907.38;5049070;28;20163;-64
2022/09/13 06:04:13;;;;;;;32.33;20.60;;;;;;;16.74;100.00;100913.25;5062303;28;20045;-64
2022/09/13 06:06:38;;;;;;;29.48;21.50;;;;;;;16.77;100.00;100909.91;5051042;28;20036;-64
2022/09/13 06:09:05;;;;;;;30.90;21.15;;;;;;;16.81;99.85;100905.50;5067798;28;20056;-66
2022/09/13 06:11:31;;;;;;;31.48;21.70;;;;;;;16.86;97.49;100903.59;5067386;28;20028;-63
2022/09/13 06:13:56;;;;;;;29.75;21.60;;;;;;;16.92;98.10;100907.22;5047345;28;20064;-64
2022/09/13 06:16:22;;;;;;;33.45;22.65;;;;;;;16.96;96.72;100902.78;5061181;28;20037;-64
2022/09/13 06:18:47;;;;;;;31.17;21.92;;;;;;;17.02;96.41;100910.03;5066767;28;20033;-66
2022/09/13 06:21:18;;;;;;;32.10;22.00;;;;;;;17.08;96.77;100914.50;5067901;28;20032;-64
2022/09/13 06:23:45;;;;;;;34.97;22.73;;;;;;;17.13;96.76;100916.44;5067239;28;20155;-64
2022/09/13 06:26:13;;;;;;;29.80;21.38;;;;;;;17.17;97.43;100916.72;5053083;28;20112;-64
2022/09/13 06:28:39;;;;;;;34.28;22.40;;;;;;;17.24;97.98;100915.38;5047578;28;20047;-64
2022/09/13 06:31:07;;;;;;;36.78;23.35;;;;;;;17.25;96.39;100916.22;5062449;28;20107;-64
2022/09/13 06:33:35;;;;;;;34.58;23.30;;;;;;;17.28;95.91;100912.88;5057353;28;20041;-64
2022/09/13 06:36:02;;;;;;;35.83;24.05;;;;;;;17.30;96.73;100910.69;5065739;28;20033;-64
2022/09/13 06:38:28;;;;;;;33.38;24.05;;;;;;;17.33;97.45;100907.34;5067663;28;20079;-64
2022/09/13 06:41:04;;;;;;;32.30;23.08;;;;;;;17.40;99.13;100907.09;5066995;28;20044;-64
2022/09/13 06:43:29;;;;;;;34.47;24.13;;;;;;;17.44;97.60;100894.34;5067664;28;20451;-63
2022/09/13 06:46:00;;;;;;;31.88;22.90;;;;;;;17.45;97.35;100898.78;5066048;28;20107;-65
2022/09/13 06:48:26;;;;;;;35.38;24.75;;;;;;;17.47;96.65;100896.53;5066420;28;20051;-64
2022/09/13 06:50:51;;;;;;;34.92;25.17;;;;;;;17.45;95.07;100890.44;5049262;28;20337;-64
2022/09/13 06:53:16;;;;;;;38.45;25.80;;;;;;;17.47;96.49;100890.97;5053887;28;20499;-63
2022/09/13 06:55:41;;;;;;;40.28;25.13;;;;;;;17.53;97.07;100901.81;5066133;28;20071;-64
2022/09/13 06:58:07;;;;;;;38.53;27.40;;;;;;;17.59;96.25;100899.91;5065078;28;20207;-64
2022/09/13 07:00:32;;;;;;;42.57;26.83;;;;;;;17.66;95.88;100900.47;5066671;28;20279;-65
2022/09/13 07:02:57;;;;;;;38.30;27.00;;;;;;;17.74;95.11;100904.63;5066073;28;20317;-66
2022/09/13 07:05:22;;;;;;;41.00;27.13;;;;;;;17.83;95.00;100901.03;5067552;28;20053;-64
2022/09/13 07:07:48;;;;;;;42.27;28.97;;;;;;;17.92;93.91;100900.50;5067554;28;20274;-64
2022/09/13 07:10:13;;;;;;;41.15;28.15;;;;;;;18.02;93.65;100898.53;5068115;28;20277;-64
2022/09/13 07:12:41;;;;;;;42.17;29.38;;;;;;;18.12;92.29;100904.09;5052943;28;20037;-64
2022/09/13 07:15:07;;;;;;;;;;;;;;;18.28;92.88;100907.66;5063511;28;20027;-64
2022/09/13 07:17:32;;;;;;;44.67;31.08;;;;;;;18.28;90.89;100906.84;5062276;28;19999;-64
2022/09/13 07:19:58;;;;;;;50.23;31.77;;;;;;;18.36;91.39;100906.28;5048014;28;20120;-64
2022/09/13 07:22:26;;;;;;;51.00;33.90;;;;;;;18.41;90.52;100904.31;5055228;28;20332;-64
2022/09/13 07:24:52;;;;;;;52.22;34.33;;;;;;;18.52;90.26;100913.47;5047356;28;20611;-64
2022/09/13 07:27:17;;;;;;;48.00;32.45;;;;;;;18.63;89.79;100903.97;5046984;28;20067;-64
2022/09/13 07:29:42;;;;;;;50.17;34.70;;;;;;;18.75;89.16;100908.41;5046396;28;20025;-64
2022/09/13 07:32:08;;;;;;;53.88;34.83;;;;;;;18.79;88.26;100915.06;5051388;28;20295;-64
2022/09/13 07:34:33;;;;;;;52.63;35.70;;;;;;;18.83;87.73;100919.78;5065543;28;20089;-64
2022/09/13 07:36:58;;;;;;;53.90;36.20;;;;;;;18.87;88.62;100914.50;5053946;28;20542;-64
2022/09/13 07:39:24;;;;;;;55.70;36.00;;;;;;;18.92;88.65;100922.84;5061066;28;20426;-64
2022/09/13 07:41:50;;;;;;;59.28;36.90;;;;;;;19.02;89.13;100922.78;5058972;28;20300;-65
2022/09/13 07:44:15;;;;;;;57.67;36.72;;;;;;;19.12;87.85;100928.31;5070755;28;20075;-64
2022/09/13 07:46:42;;;;;;;55.33;37.47;;;;;;;19.27;86.75;100932.13;5069949;28;20020;-64
2022/09/13 07:49:09;;;;;;;57.55;39.30;;;;;;;19.37;87.27;100932.06;5070495;28;20032;-64
2022/09/13 07:51:38;;;;;;;59.88;38.28;;;;;;;19.40;87.20;100934.28;5069641;28;20532;-64
2022/09/13 07:54:10;;;;;;;61.35;40.30;;;;;;;19.46;87.35;100941.47;5070553;28;20116;-64
2022/09/13 07:56:37;;;;;;;64.25;41.55;;;;;;;19.60;87.00;100944.47;5069795;28;20017;-64
2022/09/13 07:59:06;;;;;;;66.23;41.70;;;;;;;19.70;87.46;100942.47;5067279;28;20066;-64
2022/09/13 08:01:35;;;;;;;61.13;41.40;;;;;;;19.81;86.48;100940.44;5070407;28;20494;-66
2022/09/13 08:04:03;;;;;;;64.35;41.67;;;;;;;19.90;87.38;100935.06;5070261;28;20464;-64
2022/09/13 08:06:31;;;;;;;71.68;45.75;;;;;;;19.93;86.19;100938.13;5070182;28;20107;-64
2022/09/13 08:08:57;;;;;;;75.40;45.15;;;;;;;20.03;85.56;100934.41;5063616;28;20090;-65
2022/09/13 08:11:24;;;;;;;71.78;45.83;;;;;;;20.07;86.62;100934.63;5050165;28;20029;-64
2022/09/13 08:13:51;;;;;;;74.30;46.13;;;;;;;20.14;86.94;100940.72;5049040;28;20063;-64
2022/09/13 08:16:18;;;;;;;72.82;45.83;;;;;;;20.26;85.06;100937.53;5050575;28;20372;-64
2022/09/13 08:18:44;;;;;;;78.28;46.97;;;;;;;20.43;85.35;100935.16;5050710;28;20032;-65
2022/09/13 08:21:10;;;;;;;77.18;46.70;;;;;;;20.51;85.08;100925.34;5063170;28;20036;-65
2022/09/13 08:23:36;;;;;;;73.53;46.22;;;;;;;20.64;84.28;100935.81;5050358;28;20029;-65
2022/09/13 08:26:02;;;;;;;74.30;45.03;;;;;;;20.73;83.44;100943.25;5054064;28;20501;-64
2022/09/13 08:28:28;;;;;;;79.47;45.58;;;;;;;20.86;84.33;100940.84;5061606;28;20032;-65
2022/09/13 08:30:53;;;;;;;83.30;46.38;;;;;;;20.94;83.34;100948.56;5053945;28;20028;-65
2022/09/13 08:33:18;;;;;;;80.25;49.33;;;;;;;21.10;83.07;100941.66;5057163;28;20477;-67
2022/09/13 08:35:54;;;;;;;81.77;46.67;;;;;;;21.28;82.25;100951.19;5062795;28;20032;-66
2022/09/13 08:38:19;;;;;;;79.82;47.67;;;;;;;21.45;81.78;100945.16;5056966;28;20432;-65
2022/09/13 08:40:50;;;;;;;78.18;48.95;;;;;;;21.59;81.04;100945.19;5053118;28;20065;-65
2022/09/13 08:43:53;;;;;;;80.10;47.42;;;;;;;21.88;80.99;100942.25;5050430;28;20044;-65
2022/09/13 08:46:31;;;;;;;80.45;48.38;;;;;;;21.91;79.80;100958.44;5066572;28;20036;-64
2022/09/13 08:49:10;;;;;;;84.25;47.42;;;;;;;22.07;79.94;100945.84;5063295;28;20024;-65
2022/09/13 08:52:15;;;;;;;78.07;45.72;;;;;;;22.10;78.07;100948.03;5065628;28;20032;-64
2022/09/13 08:54:41;;;;;;;80.43;44.90;;;;;;;22.19;77.90;100956.56;5065448;28;20119;-64
2022/09/13 08:57:19;;;;;;;74.88;44.08;;;;;;;22.40;77.46;100959.84;5065864;28;20105;-64
2022/09/13 09:00:17;;;;;;;77.35;45.13;;;;;;;23.03;76.77;100956.44;5063416;28;20402;-65
2022/09/13 09:02:56;;;;;;;69.63;39.13;;;;;;;24.87;68.57;100952.78;5063924;28;20033;-65
2022/09/13 09:05:29;;;;;;;70.25;39.20;;;;;;;26.27;63.64;100943.41;5061626;28;20123;-66
2022/09/13 09:08:26;;;;;;;66.68;38.00;;;;;;;27.51;61.29;100945.03;5064223;28;20081;-65
2022/09/13 09:10:54;;;;;;;62.65;37.40;;;;;;;27.98;55.37;100944.00;5057953;28;20040;-65
2022/09/13 09:13:26;;;;;;;61.63;35.83;;;;;;;28.75;55.14;100936.72;5063768;28;20059;-66
2022/09/13 09:15:56;;;;;;;64.07;36.55;;;;;;;29.28;50.28;100936.88;5056738;28;20090;-66
2022/09/13 09:18:30;;;;;;;60.75;36.15;;;;;;;29.71;51.14;100930.56;5057980;28;20086;-66
2022/09/13 09:21:02;;;;;;;68.50;35.08;;;;;;;29.89;48.22;100931.91;5055630;28;20036;-66
2022/09/13 09:23:36;;;;;;;46.92;28.35;;;;;;;30.49;47.44;100921.47;5062117;28;20067;-66
2022/09/13 09:26:18;;;;;;;46.20;26.27;;;;;;;30.39;47.70;100919.19;5057265;28;20024;-66
2022/09/13 09:28:58;;;;;;;44.13;24.92;;;;;;;30.56;50.28;100922.84;5058171;28;20029;-66
2022/09/13 09:31:47;;;;;;;44.42;27.10;;;;;;;30.96;50.61;100923.50;5062365;28;20063;-66
2022/09/13 09:34:44;;;;;;;43.03;26.35;;;;;;;30.87;46.05;100925.72;5057042;28;20120;-66
2022/09/13 09:37:15;;;;;;;;;;;;;;;31.17;52.42;100928.06;5061775;28;20475;-66
2022/09/13 09:39:42;;;;;;;48.88;26.73;;;;;;;29.72;48.63;100927.38;5058266;28;19921;-66
2022/09/13 09:42:18;;;;;;;46.20;27.60;;;;;;;28.62;52.12;100937.88;5055868;28;20166;-65
2022/09/13 09:44:51;;;;;;;41.47;25.10;;;;;;;27.87;53.40;100935.97;5054533;28;20027;-65
2022/09/13 09:47:21;;;;;;;44.55;25.92;;;;;;;27.14;56.20;100939.13;5068680;28;20020;-65
2022/09/13 09:50:09;;;;;;;43.03;27.30;;;;;;;26.73;56.20;100931.34;5058174;28;20483;-65
2022/09/13 09:52:42;;;;;;;41.00;25.42;;;;;;;26.69;58.67;100938.81;5047769;28;20521;-65
2022/09/13 09:55:29;;;;;;;35.03;22.63;;;;;;;26.97;58.19;100929.91;5051859;28;20397;-65
2022/09/13 09:57:54;;;;;;;;;;;;;;;27.26;58.77;100943.22;5066466;28;20052;-66
2022/09/13 10:00:28;;;;;;;32.53;21.33;;;;;;;26.78;57.33;100936.81;5063740;28;19923;-65
2022/09/13 10:02:58;;;;;;;33.50;22.38;;;;;;;27.13;57.61;100933.84;5062854;28;20383;-65
2022/09/13 10:05:25;;;;;;;33.50;23.48;;;;;;;27.24;56.91;100935.09;5066111;28;20113;-65
2022/09/13 10:07:57;;;;;;;30.08;20.98;;;;;;;26.91;57.68;100926.44;5067839;28;20025;-65
2022/09/13 10:10:25;;;;;;;29.35;19.00;;;;;;;27.66;53.80;100929.47;5064593;28;20044;-65
2022/09/13 10:12:55;;;;;;;28.85;17.58;;;;;;;27.99;55.26;100926.75;5063997;28;20097;-65
2022/09/13 10:15:24;;;;;;;27.10;19.38;;;;;;;28.21;53.59;100928.34;5058714;28;20371;-65
2022/09/13 10:18:14;;;;;;;23.50;16.38;;;;;;;29.05;54.21;100923.22;5047721;28;20399;-65
2022/09/13 10:20:39;;;;;;;21.30;15.23;;;;;;;28.13;52.72;100924.44;5059080;28;20029;-65
2022/09/13 10:23:13;;;;;;;23.55;15.90;;;;;;;27.35;55.51;100922.25;5065496;28;20128;-65
2022/09/13 10:25:43;;;;;;;24.35;17.13;;;;;;;26.65;58.03;100916.13;5049400;28;20374;-65
2022/09/13 10:28:17;;;;;;;25.60;15.02;;;;;;;28.20;56.37;100912.56;5057444;28;20842;-66
2022/09/13 10:30:52;;;;;;;21.25;15.15;;;;;;;29.78;49.72;100907.31;5056220;28;20064;-65
2022/09/13 10:33:37;;;;;;;19.65;12.75;;;;;;;31.15;48.28;100905.72;5058539;28;20047;-66
2022/09/13 10:36:13;;;;;;;18.15;11.73;;;;;;;29.99;48.48;100917.22;5063467;28;20036;-66
2022/09/13 10:38:41;;;;;;;18.60;11.80;;;;;;;28.49;51.83;100919.25;5052994;28;20147;-66
2022/09/13 10:41:10;;;;;;;17.45;11.13;;;;;;;28.47;52.71;100918.78;5067606;28;20086;-64
2022/09/13 10:43:36;;;;;;;19.23;11.68;;;;;;;30.22;48.44;100903.34;5047619;28;20025;-65
2022/09/13 10:46:04;;;;;;;17.40;12.07;;;;;;;31.83;42.31;100906.47;5045427;28;20036;-65
2022/09/13 10:48:30;;;;;;;;;;;;;;;33.01;45.48;100904.66;5068266;28;20084;-66
2022/09/13 10:51:07;;;;;;;17.83;10.98;;;;;;;32.77;43.42;100911.53;5059899;28;19931;-66
2022/09/13 10:53:37;;;;;;;21.67;12.02;;;;;;;31.52;42.51;100906.19;5062669;28;20124;-65
2022/09/13 10:56:04;;;;;;;15.48;10.77;;;;;;;30.78;45.99;100905.25;5049392;28;20079;-66
2022/09/13 10:58:29;;;;;;;16.83;10.88;;;;;;;29.77;47.72;100912.16;5056004;28;20029;-66
2022/09/13 11:01:13;;;;;;;17.73;10.88;;;;;;;28.61;51.30;100910.81;5055582;28;20024;-65
2022/09/13 11:03:41;;;;;;;20.92;12.25;;;;;;;27.97;54.06;100908.47;5046759;28;20051;-65
2022/09/13 11:06:29;;;;;;;18.35;11.50;;;;;;;27.41;55.97;100908.75;5055737;28;20068;-65
2022/09/13 11:09:18;;;;;;;18.92;12.70;;;;;;;26.46;57.62;100897.97;5053443;28;20040;-65
2022/09/13 11:11:58;;;;;;;17.17;12.40;;;;;;;25.52;60.91;100894.94;5063841;28;20040;-66
2022/09/13 11:14:36;;;;;;;18.85;12.23;;;;;;;25.11;62.04;100896.22;5049283;28;20033;-67
2022/09/13 11:17:19;;;;;;;15.80;9.32;;;;;;;25.35;62.08;100882.53;5056001;28;20400;-65
2022/09/13 11:20:12;;;;;;;13.57;10.10;;;;;;;25.51;60.79;100887.66;5051586;28;20041;-65
2022/09/13 11:23:07;;;;;;;12.27;10.02;;;;;;;25.68;60.70;100886.81;5052360;28;20045;-65
2022/09/13 11:25:53;;;;;;;17.00;10.93;;;;;;;25.92;59.69;100880.72;5061410;28;20062;-65
2022/09/13 11:28:31;;;;;;;15.73;9.88;;;;;;;26.12;59.36;100877.19;5061256;28;20120;-67
2022/09/13 11:31:06;;;;;;;13.70;8.80;;;;;;;26.53;60.19;100878.56;5071355;28;20532;-65
2022/09/13 11:33:46;;;;;;;15.70;9.13;;;;;;;26.99;61.03;100877.66;5069343;28;20117;-65